createdAt,value
2017-06-21T00:00:02.236Z,100770.66
2017-06-21T00:02:31.345Z,100770.90
2017-06-21T00:05:00.400Z,100768.54
2017-06-21T00:07:29.440Z,100771.92
2017-06-21T00:09:58.537Z,100760.43
2017-06-21T00:12:27.604Z,100760.98
2017-06-21T00:14:56.676Z,100764.85
2017-06-21T00:17:25.737Z,100760.81
2017-06-21T00:19:54.772Z,100754.70
2017-06-21T00:22:23.829Z,100756.50
2017-06-21T00:24:52.901Z,100759.73
2017-06-21T00:27:21.956Z,100761.23
2017-06-21T00:29:51.037Z,100761.89
2017-06-21T00:32:20.092Z,100757.70
2017-06-21T00:34:49.175Z,100755.79
2017-06-21T00:37:18.236Z,100758.00
2017-06-21T00:39:47.316Z,100756.09
2017-06-21T00:42:16.378Z,100757.40
2017-06-21T00:44:45.429Z,100751.19
2017-06-21T00:47:14.571Z,100751.73
2017-06-21T00:49:43.630Z,100745.56
2017-06-21T00:52:12.688Z,100753.33
2017-06-21T00:54:41.748Z,100754.70
2017-06-21T00:57:10.823Z,100751.89
2017-06-21T00:59:40.097Z,100749.94
2017-06-21T01:02:09.171Z,100749.20
2017-06-21T01:04:38.215Z,100752.17
2017-06-21T01:07:07.264Z,100752.06
2017-06-21T01:09:36.337Z,100753.72
2017-06-21T01:12:05.401Z,100747.00
2017-06-21T01:14:34.518Z,100753.68
2017-06-21T01:17:03.616Z,100752.41
2017-06-21T01:19:32.669Z,100753.13
2017-06-21T01:22:01.737Z,100750.83
2017-06-21T01:24:30.801Z,100755.84
2017-06-21T01:26:59.864Z,100753.23
2017-06-21T01:29:28.990Z,100752.55
2017-06-21T01:31:58.061Z,100758.79
2017-06-21T01:34:27.139Z,100755.74
2017-06-21T01:36:56.196Z,100764.62
2017-06-21T01:39:25.247Z,100758.84
2017-06-21T01:41:54.307Z,100751.14
2017-06-21T01:44:23.376Z,100750.70
2017-06-21T01:46:52.445Z,100750.48
2017-06-21T01:49:21.495Z,100754.50
2017-06-21T01:51:50.548Z,100764.05
2017-06-21T01:54:19.604Z,100762.34
2017-06-21T01:56:48.653Z,100767.84
2017-06-21T01:59:17.719Z,100767.84
2017-06-21T02:01:46.768Z,100776.65
2017-06-21T02:04:15.840Z,100771.12
2017-06-21T02:06:45.060Z,100768.28
2017-06-21T02:09:14.148Z,100770.12
2017-06-21T02:11:43.214Z,100765.95
2017-06-21T02:14:12.247Z,100772.59
2017-06-21T02:16:41.300Z,100770.13
2017-06-21T02:19:10.382Z,100760.51
2017-06-21T02:21:39.452Z,100763.27
2017-06-21T02:24:08.559Z,100764.23
2017-06-21T02:26:37.605Z,100769.50
2017-06-21T02:29:06.705Z,100761.00
2017-06-21T02:31:35.784Z,100755.08
2017-06-21T02:34:04.819Z,100758.73
2017-06-21T02:36:33.885Z,100762.92
2017-06-21T02:39:03.184Z,100760.58
2017-06-21T02:41:32.253Z,100756.20
2017-06-21T02:44:01.312Z,100757.62
2017-06-21T02:46:30.367Z,100753.28
2017-06-21T02:48:59.457Z,100752.53
2017-06-21T02:51:28.507Z,100755.58
2017-06-21T02:53:57.584Z,100750.89
2017-06-21T02:56:26.637Z,100748.82
2017-06-21T02:58:55.700Z,100752.92
2017-06-21T03:01:24.745Z,100750.31
2017-06-21T03:03:54.143Z,100755.13
2017-06-21T03:06:23.209Z,100755.52
2017-06-21T03:08:52.254Z,100752.65
2017-06-21T03:11:21.324Z,100754.36
2017-06-21T03:13:50.408Z,100752.16
2017-06-21T03:16:19.489Z,100748.98
2017-06-21T03:18:48.548Z,100749.58
2017-06-21T03:21:17.601Z,100745.48
2017-06-21T03:23:46.676Z,100749.73
2017-06-21T03:26:15.736Z,100751.97
2017-06-21T03:28:45.884Z,100757.05
2017-06-21T03:31:14.978Z,100756.76
2017-06-21T03:33:44.038Z,100763.92
2017-06-21T03:36:13.133Z,100755.37
2017-06-21T03:38:42.204Z,100756.59
2017-06-21T03:41:11.285Z,100751.16
2017-06-21T03:43:40.408Z,100760.17
2017-06-21T03:46:09.829Z,100756.34
2017-06-21T03:48:38.921Z,100755.87
2017-06-21T03:51:07.980Z,100755.64
2017-06-21T03:53:37.028Z,100754.50
2017-06-21T03:56:06.121Z,100757.81
2017-06-21T03:58:35.164Z,100750.25
2017-06-21T04:01:04.216Z,100751.57
2017-06-21T04:03:33.505Z,100750.73
2017-06-21T04:06:02.580Z,100750.88
2017-06-21T04:08:31.655Z,100749.27
2017-06-21T04:11:00.699Z,100750.59
2017-06-21T04:13:29.749Z,100751.22
2017-06-21T04:15:58.814Z,100748.83
2017-06-21T04:18:27.885Z,100749.23
2017-06-21T04:20:56.956Z,100745.75
2017-06-21T04:23:26.004Z,100755.04
2017-06-21T04:25:55.082Z,100751.41
2017-06-21T04:28:24.328Z,100750.61
2017-06-21T04:30:53.383Z,100744.44
2017-06-21T04:33:22.485Z,100749.56
2017-06-21T04:35:51.537Z,100757.22
2017-06-21T04:38:20.606Z,100756.07
2017-06-21T04:40:49.665Z,100758.77
2017-06-21T04:43:18.715Z,100753.45
2017-06-21T04:45:47.804Z,100753.16
2017-06-21T04:48:17.064Z,100752.36
2017-06-21T04:50:46.110Z,100760.98
2017-06-21T04:53:15.218Z,100760.17
2017-06-21T04:55:44.289Z,100759.83
2017-06-21T04:58:13.362Z,100754.22
2017-06-21T05:00:42.633Z,100753.62
2017-06-21T05:03:11.701Z,100752.47
2017-06-21T05:05:40.774Z,100757.78
2017-06-21T05:08:09.865Z,100753.26
2017-06-21T05:10:38.903Z,100753.11
2017-06-21T05:13:07.944Z,100757.36
2017-06-21T05:15:37.025Z,100755.41
2017-06-21T05:18:06.105Z,100757.73
2017-06-21T05:20:35.127Z,100759.30
2017-06-21T05:23:04.300Z,100756.58
2017-06-21T05:25:33.328Z,100751.44
2017-06-21T05:28:02.391Z,100752.16
2017-06-21T05:30:31.476Z,100759.30
2017-06-21T05:33:00.539Z,100756.45
2017-06-21T05:35:29.605Z,100766.63
2017-06-21T05:37:58.651Z,100768.09
2017-06-21T05:40:27.737Z,100771.45
2017-06-21T05:42:56.809Z,100773.13
2017-06-21T05:45:25.865Z,100766.08
2017-06-21T05:47:54.930Z,100770.07
2017-06-21T05:50:24.271Z,100777.13
2017-06-21T05:52:53.359Z,100772.73
2017-06-21T05:55:22.408Z,100775.02
2017-06-21T05:57:51.667Z,100771.70
2017-06-21T06:00:20.744Z,100774.58
2017-06-21T06:02:49.798Z,100773.27
2017-06-21T06:05:18.888Z,100778.23
2017-06-21T06:07:47.940Z,100787.72
2017-06-21T06:10:17.025Z,100781.89
2017-06-21T06:12:46.075Z,100779.83
2017-06-21T06:15:15.140Z,100780.52
2017-06-21T06:17:44.168Z,100781.05
2017-06-21T06:20:13.256Z,100778.41
2017-06-21T06:22:42.307Z,100780.77
2017-06-21T06:25:11.372Z,100782.09
2017-06-21T06:27:40.433Z,100786.54
2017-06-21T06:30:09.759Z,100782.43
2017-06-21T06:32:38.841Z,100779.48
2017-06-21T06:35:07.893Z,100796.41
2017-06-21T06:37:36.968Z,100785.87
2017-06-21T06:40:06.126Z,100784.73
2017-06-21T06:42:35.184Z,100780.13
2017-06-21T06:45:04.277Z,100778.67
2017-06-21T06:47:33.371Z,100772.16
2017-06-21T06:50:02.430Z,100772.44
2017-06-21T06:52:31.538Z,100767.52
2017-06-21T06:55:00.560Z,100763.52
2017-06-21T06:57:29.644Z,100764.16
2017-06-21T06:59:58.738Z,100755.33
2017-06-21T07:02:27.765Z,100756.73
2017-06-21T07:04:56.829Z,100747.79
2017-06-21T07:07:25.899Z,100749.10
2017-06-21T07:09:54.973Z,100747.30
2017-06-21T07:12:24.036Z,100750.21
2017-06-21T07:14:53.076Z,100755.98
2017-06-21T07:17:22.161Z,100758.20
2017-06-21T07:19:51.208Z,100759.98
2017-06-21T07:22:20.376Z,100757.61
2017-06-21T07:24:49.451Z,100758.24
2017-06-21T07:27:18.783Z,100754.65
2017-06-21T07:29:47.846Z,100761.16
2017-06-21T07:32:16.891Z,100755.07
2017-06-21T07:34:45.938Z,100752.30
2017-06-21T07:37:15.042Z,100754.53
2017-06-21T07:39:44.092Z,100744.39
2017-06-21T07:42:13.180Z,100748.94
2017-06-21T07:44:42.234Z,100752.15
2017-06-21T07:47:11.283Z,100744.59
2017-06-21T07:49:40.400Z,100745.39
2017-06-21T07:52:09.888Z,100741.04
2017-06-21T07:54:38.991Z,100740.70
2017-06-21T07:57:08.054Z,100737.55
2017-06-21T07:59:37.115Z,100735.00
2017-06-21T08:02:06.164Z,100732.30
2017-06-21T08:04:35.227Z,100733.27
2017-06-21T08:07:04.326Z,100727.20
2017-06-21T08:09:33.372Z,100722.67
2017-06-21T08:12:02.479Z,100730.52
2017-06-21T08:14:31.552Z,100738.05
2017-06-21T08:17:00.620Z,100735.32
2017-06-21T08:19:29.782Z,100733.37
2017-06-21T08:21:58.864Z,100732.69
2017-06-21T08:24:27.933Z,100723.03
2017-06-21T08:26:57.835Z,100722.28
2017-06-21T08:29:26.905Z,100721.72
2017-06-21T08:31:55.949Z,100715.63
2017-06-21T08:34:25.017Z,100724.73
2017-06-21T08:36:54.071Z,100718.28
2017-06-21T08:39:23.148Z,100722.29
2017-06-21T08:41:52.203Z,100718.95
2017-06-21T08:44:21.268Z,100711.44
2017-06-21T08:46:50.312Z,100720.15
2017-06-21T08:49:19.363Z,100711.06
2017-06-21T08:51:48.417Z,100714.22
2017-06-21T08:54:17.484Z,100716.20
2017-06-21T08:56:46.558Z,100705.09
2017-06-21T08:59:15.672Z,100708.29
2017-06-21T09:01:44.726Z,100712.86
2017-06-21T09:04:13.795Z,100710.28
2017-06-21T09:06:42.865Z,100702.37
2017-06-21T09:09:11.969Z,100708.50
2017-06-21T09:11:41.020Z,100698.19
2017-06-21T09:14:10.100Z,100698.78
2017-06-21T09:16:39.183Z,100691.57
2017-06-21T09:19:08.204Z,100699.81
2017-06-21T09:21:37.275Z,100697.91
2017-06-21T09:24:06.334Z,100699.83
2017-06-21T09:26:35.412Z,100698.44
2017-06-21T09:29:04.455Z,100704.20
2017-06-21T09:31:33.508Z,100691.48
2017-06-21T09:34:02.580Z,100694.72
2017-06-21T09:36:31.832Z,100695.50
2017-06-21T09:39:01.505Z,100694.63
2017-06-21T09:41:30.577Z,100688.55
2017-06-21T09:43:59.654Z,100685.34
2017-06-21T09:46:28.725Z,100682.23
2017-06-21T09:48:57.795Z,100685.95
2017-06-21T09:51:26.872Z,100683.80
2017-06-21T09:53:55.957Z,100684.52
2017-06-21T09:56:25.021Z,100680.73
2017-06-21T09:58:54.075Z,100684.85
2017-06-21T10:01:23.140Z,100687.22
2017-06-21T10:03:52.212Z,100690.06
2017-06-21T10:06:21.282Z,100687.34
2017-06-21T10:08:50.347Z,100686.07
2017-06-21T10:11:19.407Z,100687.72
2017-06-21T10:13:48.492Z,100681.47
2017-06-21T10:16:17.557Z,100687.56
2017-06-21T10:18:46.624Z,100687.73
2017-06-21T10:21:15.696Z,100682.00
2017-06-21T10:23:44.763Z,100677.69
2017-06-21T10:26:13.855Z,100688.56
2017-06-21T10:28:42.924Z,100681.76
2017-06-21T10:31:11.995Z,100672.64
2017-06-21T10:33:41.042Z,100680.59
2017-06-21T10:36:10.223Z,100676.78
2017-06-21T10:38:39.280Z,100679.22
2017-06-21T10:41:08.336Z,100686.94
2017-06-21T10:43:37.412Z,100685.41
2017-06-21T10:46:06.443Z,100683.94
2017-06-21T10:48:35.588Z,100680.61
2017-06-21T10:51:04.674Z,100686.61
2017-06-21T10:53:33.727Z,100687.61
2017-06-21T10:56:02.784Z,100684.20
2017-06-21T10:58:31.849Z,100681.30
2017-06-21T11:01:00.931Z,100681.15
2017-06-21T11:03:30.003Z,100682.75
2017-06-21T11:05:59.063Z,100672.00
2017-06-21T11:08:28.127Z,100674.16
2017-06-21T11:10:57.194Z,100676.48
2017-06-21T11:13:26.247Z,100674.75
2017-06-21T11:15:55.320Z,100679.81
2017-06-21T11:18:24.447Z,100668.83
2017-06-21T11:20:53.539Z,100670.05
2017-06-21T11:23:22.805Z,100672.41
2017-06-21T11:25:51.880Z,100663.01
2017-06-21T11:28:20.964Z,100663.11
2017-06-21T11:30:50.046Z,100658.22
2017-06-21T11:33:19.124Z,100659.61
2017-06-21T11:35:48.180Z,100652.50
2017-06-21T11:38:17.246Z,100649.23
2017-06-21T11:40:46.293Z,100645.69
2017-06-21T11:43:15.353Z,100654.58
2017-06-21T11:45:44.442Z,100648.62
2017-06-21T11:48:13.509Z,100647.11
2017-06-21T11:50:42.570Z,100640.75
2017-06-21T11:53:11.635Z,100625.77
2017-06-21T11:55:40.713Z,100625.52
2017-06-21T11:58:09.776Z,100626.00
2017-06-21T12:00:38.836Z,100622.77
2017-06-21T12:03:07.913Z,100625.30
2017-06-21T12:05:36.974Z,100625.05
2017-06-21T12:08:06.057Z,100626.14
2017-06-21T12:10:35.120Z,100622.27
2017-06-21T12:13:04.213Z,100625.77
2017-06-21T12:15:33.355Z,100623.20
2017-06-21T12:18:02.458Z,100618.23
2017-06-21T12:20:31.499Z,100611.08
2017-06-21T12:23:00.595Z,100608.73
2017-06-21T12:25:29.645Z,100606.77
2017-06-21T12:27:58.691Z,100604.62
2017-06-21T12:30:28.019Z,100599.53
2017-06-21T12:32:57.080Z,100605.06
2017-06-21T12:35:26.154Z,100600.95
2017-06-21T12:37:55.228Z,100597.23
2017-06-21T12:40:24.328Z,100603.58
2017-06-21T12:42:53.396Z,100602.84
2017-06-21T12:45:22.449Z,100593.77
2017-06-21T12:47:51.545Z,100595.77
2017-06-21T12:50:20.604Z,100589.84
2017-06-21T12:52:49.856Z,100584.02
2017-06-21T12:55:18.907Z,100582.45
2017-06-21T12:57:47.973Z,100573.67
2017-06-21T13:00:17.073Z,100564.59
2017-06-21T13:02:46.148Z,100567.62
2017-06-21T13:05:15.214Z,100569.45
2017-06-21T13:07:45.101Z,100556.86
2017-06-21T13:10:14.207Z,100566.28
2017-06-21T13:12:43.254Z,100548.48
2017-06-21T13:15:12.378Z,100548.91
2017-06-21T13:17:41.440Z,100546.36
2017-06-21T13:20:10.516Z,100539.88
2017-06-21T13:22:39.571Z,100537.10
2017-06-21T13:25:08.784Z,100532.31
2017-06-21T13:27:37.851Z,100533.39
2017-06-21T13:30:06.976Z,100527.52
2017-06-21T13:32:36.040Z,100530.16
2017-06-21T13:35:05.144Z,100534.91
2017-06-21T13:37:34.240Z,100524.78
2017-06-21T13:40:03.327Z,100522.33
2017-06-21T13:42:32.400Z,100523.11
2017-06-21T13:45:01.511Z,100518.52
2017-06-21T13:47:30.564Z,100528.86
2017-06-21T13:49:59.632Z,100531.87
2017-06-21T13:52:28.693Z,100515.95
2017-06-21T13:54:57.736Z,100511.31
2017-06-21T13:57:26.820Z,100506.78
2017-06-21T13:59:57.352Z,100513.82
2017-06-21T14:02:26.399Z,100504.94
2017-06-21T14:04:55.514Z,100508.84
2017-06-21T14:07:24.542Z,100506.54
2017-06-21T14:09:53.761Z,100506.12
2017-06-21T14:12:22.823Z,100505.16
2017-06-21T14:14:51.909Z,100494.14
2017-06-21T14:17:20.955Z,100492.87
2017-06-21T14:19:50.061Z,100492.97
2017-06-21T14:22:19.123Z,100494.13
2017-06-21T14:24:48.197Z,100478.48
2017-06-21T14:27:17.297Z,100483.06
2017-06-21T14:29:46.336Z,100472.97
2017-06-21T14:32:15.396Z,100475.42
2017-06-21T14:34:44.464Z,100475.64
2017-06-21T14:37:13.867Z,100473.07
2017-06-21T14:39:42.921Z,100471.23
2017-06-21T14:42:12.035Z,100467.59
2017-06-21T14:44:41.045Z,100470.95
2017-06-21T14:47:10.144Z,100466.25
2017-06-21T14:49:39.221Z,100464.88
2017-06-21T14:52:08.295Z,100462.30
2017-06-21T14:54:37.379Z,100455.44
2017-06-21T14:57:06.436Z,100458.33
2017-06-21T14:59:35.502Z,100451.16
2017-06-21T15:02:04.568Z,100449.06
2017-06-21T15:04:33.648Z,100445.27
2017-06-21T15:07:02.736Z,100445.55
2017-06-21T15:09:31.812Z,100438.20
2017-06-21T15:12:00.906Z,100427.22
2017-06-21T15:14:29.971Z,100424.00
2017-06-21T15:16:59.038Z,100422.44
2017-06-21T15:19:28.103Z,100426.01
2017-06-21T15:21:57.179Z,100425.45
2017-06-21T15:24:26.232Z,100425.64
2017-06-21T15:26:55.285Z,100420.94
2017-06-21T15:29:24.378Z,100425.02
2017-06-21T15:31:53.447Z,100427.78
2017-06-21T15:34:22.485Z,100422.92
2017-06-21T15:36:51.824Z,100421.66
2017-06-21T15:39:20.929Z,100419.66
2017-06-21T15:41:49.960Z,100423.63
2017-06-21T15:44:19.050Z,100427.02
2017-06-21T15:46:48.111Z,100419.61
2017-06-21T15:49:17.161Z,100418.02
2017-06-21T15:51:46.215Z,100421.59
2017-06-21T15:54:15.335Z,100418.91
2017-06-21T15:56:44.408Z,100413.87
2017-06-21T15:59:13.458Z,100409.95
2017-06-21T16:01:42.524Z,100408.41
2017-06-21T16:04:11.595Z,100405.55
2017-06-21T16:06:40.685Z,100402.12
2017-06-21T16:09:09.763Z,100407.83
2017-06-21T16:11:38.942Z,100400.84
2017-06-21T16:14:08.200Z,100404.73
2017-06-21T16:16:37.259Z,100395.94
2017-06-21T16:19:06.332Z,100388.41
2017-06-21T16:21:36.200Z,100395.05
2017-06-21T16:24:05.287Z,100391.18
2017-06-21T16:26:34.344Z,100396.78
2017-06-21T16:29:04.185Z,100385.80
2017-06-21T16:31:33.251Z,100389.17
2017-06-21T16:34:03.188Z,100390.66
2017-06-21T16:36:33.046Z,100388.30
2017-06-21T16:39:02.140Z,100382.20
2017-06-21T16:41:31.204Z,100392.11
2017-06-21T16:44:00.279Z,100386.98
2017-06-21T16:46:30.081Z,100375.91
2017-06-21T16:48:59.669Z,100382.06
2017-06-21T16:51:28.725Z,100379.83
2017-06-21T16:53:57.767Z,100381.31
2017-06-21T16:56:27.067Z,100376.67
2017-06-21T16:58:56.136Z,100381.53
2017-06-21T17:01:25.373Z,100379.74
2017-06-21T17:03:54.424Z,100376.95
2017-06-21T17:06:23.509Z,100381.81
2017-06-21T17:08:52.597Z,100379.19
2017-06-21T17:11:21.676Z,100377.87
2017-06-21T17:13:50.788Z,100385.59
2017-06-21T17:16:19.819Z,100373.59
2017-06-21T17:18:49.655Z,100370.59
2017-06-21T17:21:18.734Z,100368.86
2017-06-21T17:23:48.658Z,100360.36
2017-06-21T17:26:17.774Z,100367.38
2017-06-21T17:28:46.857Z,100365.08
2017-06-21T17:31:15.905Z,100368.52
2017-06-21T17:33:44.988Z,100368.13
2017-06-21T17:36:14.064Z,100367.69
2017-06-21T17:38:43.143Z,100371.77
2017-06-21T17:41:12.237Z,100368.72
2017-06-21T17:43:41.288Z,100357.39
2017-06-21T17:46:11.298Z,100364.19
2017-06-21T17:48:41.458Z,100365.61
2017-06-21T17:51:10.552Z,100363.66
2017-06-21T17:53:40.376Z,100362.48
2017-06-21T17:56:09.440Z,100367.12
2017-06-21T17:58:39.311Z,100363.11
2017-06-21T18:01:08.368Z,100373.91
2017-06-21T18:03:37.457Z,100370.23
2017-06-21T18:06:06.515Z,100371.46
2017-06-21T18:08:35.564Z,100377.29
2017-06-21T18:11:04.643Z,100378.48
2017-06-21T18:13:34.364Z,100373.22
2017-06-21T18:16:04.223Z,100373.84
2017-06-21T18:18:33.302Z,100377.09
2017-06-21T18:21:02.356Z,100383.11
2017-06-21T18:23:31.432Z,100379.83
2017-06-21T18:26:00.504Z,100377.64
2017-06-21T18:28:29.602Z,100379.21
2017-06-21T18:30:59.458Z,100382.96
2017-06-21T18:33:30.365Z,100381.95
2017-06-21T18:36:02.359Z,100380.95
2017-06-21T18:38:31.452Z,100380.66
2017-06-21T18:41:00.537Z,100372.33
2017-06-21T18:43:30.356Z,100372.89
2017-06-21T18:46:00.189Z,100366.13
2017-06-21T18:48:29.251Z,100368.77
2017-06-21T18:50:59.076Z,100362.81
2017-06-21T18:53:28.165Z,100354.74
2017-06-21T18:55:57.209Z,100351.45
2017-06-21T18:58:26.269Z,100353.94
2017-06-21T19:00:55.618Z,100348.80
2017-06-21T19:03:24.693Z,100342.17
2017-06-21T19:05:53.734Z,100345.92
2017-06-21T19:08:23.599Z,100353.53
2017-06-21T19:10:52.657Z,100356.58
2017-06-21T19:13:22.491Z,100351.55
2017-06-21T19:15:51.563Z,100354.91
2017-06-21T19:18:21.404Z,100358.08
2017-06-21T19:20:50.452Z,100353.06
2017-06-21T19:23:19.521Z,100357.48
2017-06-21T19:25:48.597Z,100359.09
2017-06-21T19:28:17.645Z,100362.40
2017-06-21T19:30:46.992Z,100358.61
2017-06-21T19:33:16.064Z,100359.66
2017-06-21T19:35:45.125Z,100355.27
2017-06-21T19:38:14.234Z,100354.17
2017-06-21T19:40:44.084Z,100365.66
2017-06-21T19:43:13.497Z,100369.27
2017-06-21T19:45:42.542Z,100373.08
2017-06-21T19:48:12.384Z,100376.50
2017-06-21T19:50:41.481Z,100389.16
2017-06-21T19:53:10.723Z,100390.75
2017-06-21T19:55:39.824Z,100386.86
2017-06-21T19:58:09.116Z,100391.62
2017-06-21T20:00:38.151Z,100385.94
2017-06-21T20:03:08.003Z,100388.77
2017-06-21T20:05:37.084Z,100394.68
2017-06-21T20:08:06.254Z,100393.83
2017-06-21T20:10:36.197Z,100388.05
2017-06-21T20:13:05.478Z,100394.20
2017-06-21T20:15:35.420Z,100389.45
2017-06-21T20:18:04.500Z,100386.16
2017-06-21T20:20:33.558Z,100384.84
2017-06-21T20:23:03.231Z,100384.91
2017-06-21T20:25:32.338Z,100382.43
2017-06-21T20:28:01.392Z,100382.67
2017-06-21T20:30:30.458Z,100378.56
2017-06-21T20:32:59.679Z,100385.58
2017-06-21T20:35:29.085Z,100384.19
2017-06-21T20:37:58.220Z,100386.00
2017-06-21T20:40:27.272Z,100387.03
2017-06-21T20:42:56.361Z,100382.31
2017-06-21T20:45:25.448Z,100374.00
2017-06-21T20:47:54.652Z,100372.06
2017-06-21T20:50:23.872Z,100373.09
2017-06-21T20:52:52.952Z,100381.86
2017-06-21T20:55:22.062Z,100381.86
2017-06-21T20:57:51.124Z,100388.23
2017-06-21T21:00:20.218Z,100389.10
2017-06-21T21:02:49.312Z,100389.16
2017-06-21T21:05:18.605Z,100385.09
2017-06-21T21:07:47.747Z,100385.79
2017-06-21T21:10:16.899Z,100378.18
2017-06-21T21:12:45.976Z,100393.67
2017-06-21T21:15:15.027Z,100391.31
2017-06-21T21:17:44.099Z,100392.72
2017-06-21T21:20:13.986Z,100387.02
2017-06-21T21:22:43.040Z,100379.13
2017-06-21T21:25:12.124Z,100389.30
2017-06-21T21:27:41.194Z,100389.37
2017-06-21T21:30:10.320Z,100388.44
2017-06-21T21:32:39.720Z,100384.72
2017-06-21T21:35:08.823Z,100383.20
2017-06-21T21:37:38.610Z,100379.11
2017-06-21T21:40:07.914Z,100378.93
2017-06-21T21:42:37.735Z,100380.20
2017-06-21T21:45:06.843Z,100375.08
2017-06-21T21:47:35.896Z,100373.16
2017-06-21T21:50:05.712Z,100382.69
2017-06-21T21:52:35.590Z,100376.58
2017-06-21T21:55:04.674Z,100375.81
2017-06-21T21:57:33.756Z,100369.89
2017-06-21T22:00:02.911Z,100365.39
2017-06-21T22:02:31.936Z,100362.63
2017-06-21T22:05:01.017Z,100361.25
2017-06-21T22:07:31.233Z,100368.19
2017-06-21T22:10:01.077Z,100361.68
2017-06-21T22:12:30.146Z,100359.09
2017-06-21T22:15:00.976Z,100363.09
2017-06-21T22:17:30.817Z,100354.04
2017-06-21T22:19:59.873Z,100360.59
2017-06-21T22:22:29.688Z,100360.17
2017-06-21T22:24:59.526Z,100359.61
2017-06-21T22:27:28.584Z,100364.17
2017-06-21T22:29:57.665Z,100362.77
2017-06-21T22:32:26.864Z,100368.55
2017-06-21T22:34:55.935Z,100379.84
2017-06-21T22:37:25.005Z,100378.67
2017-06-21T22:39:54.816Z,100382.99
2017-06-21T22:42:23.904Z,100383.79
2017-06-21T22:44:52.966Z,100380.22
2017-06-21T22:47:22.032Z,100384.60
2017-06-21T22:49:51.085Z,100377.07
2017-06-21T22:52:20.144Z,100373.92
2017-06-21T22:54:49.244Z,100370.19
2017-06-21T22:57:18.309Z,100370.17
2017-06-21T22:59:47.564Z,100378.30
2017-06-21T23:02:17.546Z,100368.80
2017-06-21T23:04:46.594Z,100368.61
2017-06-21T23:07:15.637Z,100356.73
2017-06-21T23:09:44.728Z,100364.64
2017-06-21T23:12:13.783Z,100355.16
2017-06-21T23:14:42.823Z,100367.80
2017-06-21T23:17:11.884Z,100366.63
2017-06-21T23:19:40.924Z,100371.55
2017-06-21T23:22:10.792Z,100366.22
2017-06-21T23:24:39.997Z,100364.45
2017-06-21T23:27:09.884Z,100349.02
2017-06-21T23:29:38.946Z,100354.16
2017-06-21T23:32:08.019Z,100352.58
2017-06-21T23:34:37.084Z,100339.73
2017-06-21T23:37:06.146Z,100341.53
2017-06-21T23:39:35.963Z,100336.38
2017-06-21T23:42:05.063Z,100330.06
2017-06-21T23:44:34.860Z,100327.69
2017-06-21T23:47:04.732Z,100322.73
2017-06-21T23:49:33.797Z,100319.98
2017-06-21T23:52:02.860Z,100321.36
2017-06-21T23:54:32.692Z,100320.16
2017-06-21T23:57:01.780Z,100309.68
2017-06-21T23:59:30.848Z,100301.16
